Latest Weather Observations for Charleville

IDQ60801

Issued at 12:35 pm EST Tuesday 29 July 2014 (issued every 30 minutes, with the page automatically refreshed every 10 minutes)

About weather observations | Map of weather stations | Latest weather observations for QLD | Other Formats
Station Details ID: 044021 Name: CHARLEVILLE AERO Lat: -26.41 Lon: 146.26 Height: 301.6 m
Data from the previous 72 hours. | See also: Recent months at Charleville
Date/Time
EST
Temp
°C
App
Temp
°C
Dew
Point
Rel
Hum
%
Delta-T
°C
Wind Press
QNH
hPa
Press
MSL
hPa
Rain
since 9 am
mm
Dir
 
Spd
km/h
Gust
km/h
Spd
kts
Gust
kts
29/12:30pm 24.3 19.7 -1.1 18 11.5 WSW 13 22 7 12 1021.3 - 0.0
29/12:00pm 24.0 19.4 -1.4 18 11.4 WSW 13 20 7 11 1021.9 1022.2 0.0
29/11:30am 23.1 20.4 2.5 26 9.9 NW 6 13 3 7 1022.3 - 0.0
29/11:00am 21.5 18.7 2.9 29 8.9 WNW 7 9 4 5 1022.6 - 0.0
29/10:30am 19.3 16.4 2.7 33 7.8 WNW 7 11 4 6 1023.0 - 0.0
29/10:00am 17.7 15.5 3.1 37 6.8 N 4 7 2 4 1023.1 - 0.0
29/09:30am 15.9 12.6 2.7 41 6.0 NNW 9 13 5 7 1023.1 - 0.0
29/09:00am 13.9 10.7 2.9 47 5.0 NNE 9 13 5 7 1022.8 1023.1 0.0
29/08:30am 11.9 9.7 3.4 56 3.8 NNE 4 7 2 4 1022.8 - 0.0
29/08:00am 9.2 7.5 3.8 69 2.4 E 2 6 1 3 1022.7 - 0.0
29/07:30am 5.6 4.1 3.0 83 1.1 CALM 0 0 0 0 1022.5 - 0.0
29/07:00am 4.7 3.1 2.5 86 0.9 CALM 0 0 0 0 1022.2 - 0.0
29/06:30am 4.7 2.0 2.4 85 0.9 ESE 6 7 3 4 1021.8 - 0.0
29/06:00am 5.1 3.6 2.8 85 1.0 ESE 0 0 0 0 1021.4 1021.8 0.0
29/05:30am 5.4 3.9 2.8 83 1.1 ESE 0 0 0 0 1021.3 - 0.0
29/05:00am 5.7 3.0 2.8 81 1.2 SE 6 9 3 5 1020.9 - 0.0
29/04:30am 6.1 4.3 3.2 82 1.2 SW 2 7 1 4 1020.8 - 0.0
29/04:00am 7.1 5.7 3.4 77 1.6 CALM 0 0 0 0 1020.8 - 0.0
29/03:30am 7.8 5.6 3.3 73 1.9 W 4 13 2 7 1020.7 - 0.0
29/03:00am 8.4 5.9 3.7 72 2.1 N 6 7 3 4 1020.4 1020.7 0.0
29/02:30am 8.5 6.7 3.4 70 2.2 SE 2 6 1 3 1020.5 - 0.0
29/02:00am 9.4 7.1 2.7 63 2.9 SE 4 6 2 3 1020.5 - 0.0
29/01:30am 10.3 7.5 2.9 60 3.2 SSE 7 9 4 5 1020.9 - 0.0
29/01:00am 11.2 7.4 1.7 52 4.1 SE 11 13 6 7 1021.0 - 0.0
29/12:30am 10.0 6.4 2.8 61 3.1 SSE 11 13 6 7 1021.2 - 0.0
29/12:00am 9.7 7.5 3.4 65 2.8 ENE 4 9 2 5 1021.2 1021.6 0.0
 
Date/Time
EST
Temp
°C
App
Temp
°C
Dew
Point
Rel
Hum
%
Delta-T
°C
Wind Press
QNH
hPa
Press
MSL
hPa
Rain
since 9 am
mm
Dir
 
Spd
km/h
Gust
km/h
Spd
kts
Gust
kts
28/11:30pm 10.6 9.3 4.3 65 2.9 CALM 0 0 0 0 1021.2 - 0.0
28/11:00pm 11.4 10.0 3.5 58 3.5 CALM 0 6 0 3 1021.3 - 0.0
28/10:30pm 11.9 9.3 3.3 55 3.9 N 6 13 3 7 1021.1 - 0.0
28/10:00pm 12.5 11.0 3.0 52 4.3 CALM 0 0 0 0 1020.9 - 0.0
28/09:30pm 13.0 10.3 5.4 60 3.6 E 9 11 5 6 1020.9 - 0.0
28/09:00pm 13.3 10.7 4.2 54 4.2 ESE 7 9 4 5 1020.9 1021.2 0.0
28/08:30pm 14.6 11.9 3.7 48 5.1 ESE 7 9 4 5 1020.8 - 0.0
28/08:00pm 15.6 12.0 3.2 43 5.7 SSE 11 11 6 6 1020.7 - 0.0
28/07:30pm 16.1 13.3 2.9 41 6.1 SE 7 9 4 5 1020.5 - 0.0
28/07:00pm 16.5 13.3 3.2 41 6.2 ESE 9 9 5 5 1020.2 - 0.0
28/06:30pm 18.2 15.3 2.8 35 7.2 SSE 7 7 4 4 1019.9 - 0.0
28/06:00pm 19.9 17.1 2.2 31 8.3 SSW 6 7 3 4 1019.8 1020.1 0.0
28/05:30pm 23.0 20.3 2.4 26 9.9 W 6 9 3 5 1019.6 - 0.0
28/05:00pm 24.2 20.6 0.9 21 11.0 SW 9 13 5 7 1019.5 - 0.0
28/04:30pm 24.5 22.1 2.0 23 10.9 ESE 4 7 2 4 1019.5 - 0.0
28/04:00pm 24.1 20.7 1.6 23 10.8 WNW 9 15 5 8 1019.4 - 0.0
28/03:30pm 24.5 21.5 0.5 20 11.3 WSW 6 15 3 8 1019.5 - 0.0
28/03:00pm 23.9 20.8 -0.1 20 11.1 WNW 6 17 3 9 1019.8 1020.1 0.0
28/02:30pm 24.3 20.3 0.4 20 11.2 NW 11 17 6 9 1020.2 - 0.0
28/02:00pm 24.1 19.7 0.5 21 11.1 W 13 22 7 12 1020.6 - 0.0
28/01:30pm 24.3 19.3 1.3 22 10.9 WSW 17 26 9 14 1021.0 - 0.0
28/01:00pm 23.5 19.2 0.8 22 10.6 NNE 13 28 7 15 1021.4 - 0.0
28/12:30pm 22.8 19.3 1.2 24 10.1 N 9 19 5 10 1022.1 - 0.0
28/12:00pm 22.1 18.3 1.7 26 9.6 NNE 11 17 6 9 1022.7 1023.0 0.0
28/11:30am 20.8 16.0 0.1 25 9.4 N 15 19 8 10 1023.2 - 0.0
28/11:00am 19.9 14.4 0.9 28 8.7 N 19 26 10 14 1023.7 - 0.0
28/10:30am 18.7 14.5 1.6 32 7.8 N 13 17 7 9 1024.0 - 0.0
28/10:00am 17.2 12.6 1.4 34 7.1 NNE 15 22 8 12 1024.4 - 0.0
28/09:30am 15.6 11.3 1.2 37 6.4 NNE 13 17 7 9 1024.5 - 0.0
28/09:00am 13.3 9.1 1.8 45 5.0 NNE 13 17 7 9 1024.4 1024.8 0.0
28/08:30am 11.2 7.9 2.7 56 3.7 NNE 9 11 5 6 1024.0 - 0.0
28/08:00am 8.6 6.3 2.7 66 2.5 N 4 9 2 5 1023.8 - 0.0
28/07:30am 6.3 3.5 3.0 79 1.4 N 7 9 4 5 1023.6 - 0.0
28/07:00am 3.9 1.2 2.7 92 0.5 N 6 7 3 4 1023.6 - 0.0
28/06:30am 3.9 1.6 2.7 92 0.5 N 4 7 2 4 1023.2 - 0.0
28/06:00am 3.6 2.0 2.4 92 0.5 CALM 0 0 0 0 1022.9 1023.2 0.0
28/05:30am 3.5 1.8 2.0 90 0.6 CALM 0 0 0 0 1022.8 - 0.0
28/05:00am 3.5 1.9 2.2 91 0.5 CALM 0 0 0 0 1022.8 - 0.0
28/04:30am 3.7 2.1 2.4 91 0.5 CALM 0 0 0 0 1022.8 - 0.0
28/04:00am 4.1 2.5 2.4 89 0.7 CALM 0 0 0 0 1022.9 - 0.0
28/03:30am 4.6 3.1 2.8 88 0.7 CALM 0 0 0 0 1023.1 - 0.0
28/03:00am 4.9 3.4 3.1 88 0.7 CALM 0 0 0 0 1023.0 1023.3 0.0
28/02:30am 5.3 3.8 3.1 86 0.9 CALM 0 0 0 0 1023.2 - 0.0
28/02:00am 5.7 4.3 3.3 84 1.0 CALM 0 0 0 0 1023.3 - 0.0
28/01:30am 6.3 4.9 3.5 82 1.2 CALM 0 0 0 0 1023.4 - 0.0
28/01:00am 6.8 4.3 3.6 80 1.4 S 6 7 3 4 1023.5 - 0.0
28/12:30am 7.1 4.3 2.9 74 1.8 S 7 9 4 5 1023.6 - 0.0
28/12:00am 7.5 5.3 3.3 75 1.8 S 4 7 2 4 1023.9 1024.3 0.0
 
Date/Time
EST
Temp
°C
App
Temp
°C
Dew
Point
Rel
Hum
%
Delta-T
°C
Wind Press
QNH
hPa
Press
MSL
hPa
Rain
since 9 am
mm
Dir
 
Spd
km/h
Gust
km/h
Spd
kts
Gust
kts
27/11:30pm 7.9 5.2 3.6 74 1.9 SSE 7 9 4 5 1023.8 - 0.0
27/11:00pm 8.4 7.0 3.6 72 2.1 CALM 0 0 0 0 1024.0 - 0.0
27/10:30pm 9.3 7.8 3.1 65 2.7 CALM 0 0 0 0 1024.0 - 0.0
27/10:00pm 10.2 8.9 4.1 66 2.7 CALM 0 0 0 0 1024.1 - 0.0
27/09:30pm 11.4 8.9 3.7 59 3.5 S 6 7 3 4 1024.1 - 0.0
27/09:00pm 12.7 9.3 1.7 47 4.8 S 9 11 5 6 1024.1 1024.5 0.0
27/08:30pm 14.2 10.9 2.2 44 5.4 SSE 9 11 5 6 1023.9 - 0.0
27/08:00pm 15.5 12.0 1.2 38 6.3 S 9 11 5 6 1023.9 - 0.0
27/07:30pm 14.8 11.4 2.0 42 5.7 SSW 9 13 5 7 1023.7 - 0.0
27/07:00pm 14.5 11.3 3.1 46 5.2 S 9 13 5 7 1023.3 - 0.0
27/06:30pm 16.1 13.0 3.8 44 5.8 SSW 9 11 5 6 1023.1 - 0.0
27/06:00pm 18.7 15.3 1.8 32 7.7 SSW 9 11 5 6 1022.9 1023.2 0.0
27/05:30pm 20.9 16.7 -0.8 23 9.7 SSW 11 13 6 7 1022.6 - 0.0
27/05:00pm 22.1 17.8 -1.4 20 10.4 SSW 11 15 6 8 1022.5 - 0.0
27/04:30pm 22.2 17.6 -0.8 21 10.4 SSW 13 20 7 11 1022.4 - 0.0
27/04:00pm 22.5 17.9 -1.0 21 10.6 SSW 13 22 7 12 1022.6 - 0.0
27/03:30pm 22.6 17.3 -0.8 21 10.6 S 17 24 9 13 1022.6 - 0.0
27/03:00pm 23.0 18.9 -0.3 21 10.6 WSW 11 19 6 10 1022.8 1023.1 0.0
27/02:30pm 22.8 17.9 -0.7 21 10.6 SW 15 24 8 13 1023.2 - 0.0
27/02:00pm 22.0 18.1 0.9 24 9.8 S 11 19 6 10 1023.5 - 0.0
27/01:30pm 22.1 19.4 2.8 28 9.3 ESE 6 11 3 6 1023.9 - 0.0
27/01:00pm 21.4 18.0 1.8 27 9.2 WNW 9 15 5 8 1024.4 - 0.0
27/12:30pm 21.2 18.0 3.3 30 8.7 SSE 9 13 5 7 1024.8 - 0.0
27/12:00pm 20.8 17.3 3.3 31 8.4 ESE 11 17 6 9 1025.5 1025.8 0.0
27/11:30am 20.1 15.6 2.4 31 8.3 SE 15 20 8 11 1026.0 - 0.0
27/11:00am 19.2 14.8 2.8 33 7.7 SE 15 20 8 11 1026.7 - 0.0
27/10:30am 18.9 14.3 3.7 36 7.3 SE 17 24 9 13 1027.1 - 0.0
27/10:00am 18.1 13.6 4.1 39 6.7 ESE 17 24 9 13 1027.2 - 0.0
27/09:30am 17.0 13.6 6.1 48 5.4 ESE 13 17 7 9 1027.2 - 0.0
27/09:00am 14.2 11.9 5.9 57 4.0 SE 7 7 4 4 1026.9 1027.3 0.0
27/08:30am 11.5 9.1 5.2 65 2.9 S 7 9 4 5 1026.7 - 0.0
27/08:00am 8.0 7.1 6.0 87 0.9 CALM 0 0 0 0 1026.4 - 0.0
27/07:30am 5.8 4.7 5.0 95 0.4 CALM 0 0 0 0 1026.2 - 0.0
27/07:00am 5.2 4.0 4.4 95 0.3 CALM 0 0 0 0 1025.8 - 0.0
27/06:30am 5.4 4.2 4.7 95 0.3 CALM 0 0 0 0 1025.4 - 0.0
27/06:00am 5.5 4.3 4.8 95 0.3 CALM 0 0 0 0 1025.0 1025.4 0.0
27/05:30am 5.7 4.6 4.9 95 0.4 CALM 0 0 0 0 1024.7 - 0.0
27/05:00am 6.0 4.2 5.4 96 0.3 SSE 4 6 2 3 1024.8 - 0.0
27/04:30am 6.3 5.3 5.5 95 0.4 CALM 0 0 0 0 1024.8 - 0.0
27/04:00am 6.6 5.6 5.5 93 0.5 CALM 0 0 0 0 1024.7 - 0.0
27/03:30am 7.0 6.1 5.9 93 0.5 CALM 0 0 0 0 1024.8 - 0.0
27/03:00am 7.3 6.4 6.0 91 0.6 CALM 0 0 0 0 1025.3 1025.6 0.0
27/02:30am 7.9 7.1 6.6 91 0.6 CALM 0 0 0 0 1025.4 - 0.0
27/02:00am 8.0 7.2 6.5 90 0.7 CALM 0 0 0 0 1025.6 - 0.0
27/01:30am 8.6 7.8 6.5 87 1.0 CALM 0 0 0 0 1025.6 - 0.0
27/01:00am 9.2 8.5 6.8 85 1.1 CALM 0 0 0 0 1025.9 - 0.0
27/12:30am 10.2 9.5 7.1 81 1.5 CALM 0 0 0 0 1026.0 - 0.0
27/12:00am 10.9 9.0 7.5 79 1.7 SSE 7 9 4 5 1026.0 1026.3 0.0
 
Date/Time
EST
Temp
°C
App
Temp
°C
Dew
Point
Rel
Hum
%
Delta-T
°C
Wind Press
QNH
hPa
Press
MSL
hPa
Rain
since 9 am
mm
Dir
 
Spd
km/h
Gust
km/h
Spd
kts
Gust
kts
26/11:30pm 11.6 9.8 7.3 75 2.1 SSE 6 7 3 4 1026.1 - 0.0
26/11:00pm 11.9 9.5 7.2 73 2.3 S 9 11 5 6 1026.1 - 0.0
26/10:30pm 12.1 10.2 7.5 73 2.3 SSE 7 9 4 5 1025.9 - 0.0
26/10:00pm 12.3 10.4 7.6 73 2.3 SSE 7 9 4 5 1025.8 - 0.0
26/09:30pm 13.0 11.0 8.8 75 2.1 SSE 9 9 5 5 1025.5 - 0.0
26/09:00pm 13.2 11.2 8.7 74 2.3 SSE 9 9 5 5 1025.5 1025.8 0.0
26/08:30pm 14.2 12.5 8.3 67 3.0 SSE 7 9 4 5 1025.5 - 0.0
26/08:00pm 15.9 13.8 8.1 60 4.0 S 9 13 5 7 1025.0 - 0.0
26/07:30pm 15.6 13.7 9.0 65 3.4 S 9 13 5 7 1024.7 - 0.0
26/07:00pm 16.9 15.3 8.8 59 4.2 SSW 7 9 4 5 1024.4 - 0.0
26/06:30pm 18.1 16.5 8.9 55 4.9 SSW 7 9 4 5 1024.2 - 0.0
26/06:00pm 19.5 17.0 8.2 48 5.9 SSW 11 13 6 7 1023.9 1024.3 0.0
26/05:30pm 21.1 18.4 7.4 41 7.2 SSW 11 15 6 8 1023.6 - 0.0
26/05:00pm 22.3 19.1 6.9 37 8.0 SW 13 17 7 9 1023.5 - 0.0
26/04:30pm 22.6 19.8 6.8 36 8.2 WSW 11 17 6 9 1023.4 - 0.0
26/04:00pm 23.0 20.0 7.8 37 8.1 SSW 13 22 7 12 1023.4 - 0.0
26/03:30pm 23.3 20.9 8.7 39 7.9 WSW 11 19 6 10 1023.3 - 0.0
26/03:00pm 22.5 20.6 9.0 42 7.3 WSW 9 19 5 10 1023.3 1023.6 0.0
26/02:30pm 23.0 20.9 9.6 42 7.4 W 11 19 6 10 1023.3 - 0.0
26/02:00pm 22.2 20.4 9.3 43 7.0 SW 9 19 5 10 1023.4 - 0.0
26/01:30pm 22.1 20.1 10.2 46 6.6 W 11 19 6 10 1023.9 - 0.0
26/01:00pm 21.0 19.0 10.1 49 6.0 WSW 11 17 6 9 1024.3 - 0.0

Other Formats:

Comma delimited format used in spreadsheet applications
http://www.bom.gov.au/fwo/IDQ60801/IDQ60801.94510.axf

JavaScript Object Notation format (JSON) in row-major order
http://www.bom.gov.au/fwo/IDQ60801/IDQ60801.94510.json